Fairburn, Georgia
Current Conditions -  °F | °C
As of 10:52 AM on Monday 22 Dec 2014 (Local Time) from KATL Reporting Station
Drizzle Drizzle  
Wind Chill: 40°   Ceiling: 300
Heat Index: 45°   Visibility: 0.5mi
Dew Point: 44°   Wind: 10mph
Humidity: 97%   Direction: 100°E
Pressure: 30.02"   Gusts: NA
Location:  33.57°N, 84.58°W
Report Text: KATL 221552Z 10009KT 1/2SM R09R/5000VP6000FT -DZ BR OVC003 07/07 A3002 RMK AO2 SFC VIS 3/4 SLP168 P0000 T00720067
Loading
Personal Weather Stations






























Interactive Weather Map New forecast layout! Learn more

10-Day Weather Forecast

Advertisements
Track Severe Weather on mobile